Time;durP1;ratioP1;P1;durP2;ratioP2;P2;SDS_P1;SDS_P2;PMS_P1;PMS_P2;Temp;Humidity;BMP_temperature;BMP_pressure;BME280_temperature;BME280_humidity;BME280_pressure;Samples;Min_cycle;Max_cycle;Signal;HPM_P1;HPM_P2
2023/09/30 00:00:10;;;;;;;10.50;5.70;;;;;;;;;;103479;1292;548004;-75
2023/09/30 00:03:39;;;;;;;11.80;5.70;;;;;;;;;;103755;1292;545049;-78
2023/09/30 00:07:12;;;;;;;8.70;5.50;;;;;;;;;;103855;1289;545261;-76
2023/09/30 00:10:55;;;;;;;10.90;5.70;;;;;;;;;;103798;1292;545474;-78
2023/09/30 00:14:33;;;;;;;9.20;5.90;;;;;;;;;;104031;1289;545463;-75
2023/09/30 00:18:10;;;;;;;10.50;5.70;;;;;;;;;;103730;1292;544913;-76
2023/09/30 00:21:53;;;;;;;9.90;5.70;;;;;;;;;;103322;1294;547994;-76
2023/09/30 00:25:31;;;;;;;10.60;5.50;;;;;;;;;;103539;1292;548098;-77
2023/09/30 00:29:10;;;;;;;10.20;5.30;;;;;;;;;;103495;1293;548014;-76
2023/09/30 00:33:00;;;;;;;10.00;5.30;;;;;;;;;;103652;1296;548026;-78
2023/09/30 00:36:23;;;;;;;9.50;5.20;;;;;;;;;;103642;1289;547879;-76
2023/09/30 00:39:55;;;;;;;9.70;5.10;;;;;;;;;;104115;1294;544959;-75
2023/09/30 00:43:33;;;;;;;9.50;5.20;;;;;;;;;;103465;1293;546135;-76
2023/09/30 00:47:10;;;;;;;10.20;5.00;;;;;;;;;;103919;1290;545732;-77
2023/09/30 00:50:48;;;;;;;10.20;4.60;;;;;;;;;;103743;1292;544942;-79
2023/09/30 00:54:26;;;;;;;8.70;4.70;;;;;;;;;;104199;1286;545004;-77
2023/09/30 00:58:03;;;;;;;8.30;4.50;;;;;;;;;;104262;1289;545827;-77
2023/09/30 01:01:41;;;;;;;9.80;5.50;;;;;;;;;;103735;1290;544953;-78
2023/09/30 01:05:17;;;;;;;9.10;5.20;;;;;;;;;;103773;1290;546218;-76
2023/09/30 01:08:54;;;;;;;9.40;5.00;;;;;;;;;;103794;1289;545517;-76
2023/09/30 01:12:38;;;;;;;9.80;4.50;;;;;;;;;;103650;1291;548139;-75
2023/09/30 01:16:15;;;;;;;9.30;4.80;;;;;;;;;;103608;1295;548187;-75
2023/09/30 01:19:49;;;;;;;9.60;4.60;;;;;;;;;;103720;1292;545888;-75
2023/09/30 01:23:34;;;;;;;9.50;4.40;;;;;;;;;;103600;1292;548001;-76
2023/09/30 01:27:02;;;;;;;9.50;4.50;;;;;;;;;;103857;1289;544798;-76
2023/09/30 01:30:41;;;;;;;9.00;4.30;;;;;;;;;;103856;1291;545544;-75
2023/09/30 01:34:17;;;;;;;10.30;4.60;;;;;;;;;;104383;1285;544911;-76
2023/09/30 01:37:54;;;;;;;8.40;4.00;;;;;;;;;;104031;1291;545208;-76
2023/09/30 01:41:32;;;;;;;10.00;4.50;;;;;;;;;;103830;1289;545991;-77
2023/09/30 01:45:06;;;;;;;10.00;4.40;;;;;;;;;;103956;1289;545248;-76
2023/09/30 01:48:48;;;;;;;10.10;4.80;;;;;;;;;;103913;1290;544965;-79
2023/09/30 01:52:25;;;;;;;9.80;5.10;;;;;;;;;;103827;1289;546092;-75
2023/09/30 01:56:04;;;;;;;10.70;5.10;;;;;;;;;;103743;1293;545352;-74
2023/09/30 01:59:41;;;;;;;11.40;4.50;;;;;;;;;;103730;1290;544905;-79
2023/09/30 02:03:19;;;;;;;10.00;5.00;;;;;;;;;;103981;1291;544773;-75
2023/09/30 02:07:01;;;;;;;9.00;4.40;;;;;;;;;;103546;1291;547834;-75
2023/09/30 02:10:33;;;;;;;8.60;4.60;;;;;;;;;;103669;1290;545007;-75
2023/09/30 02:14:11;;;;;;;9.60;4.70;;;;;;;;;;103758;1289;544921;-75
2023/09/30 02:17:49;;;;;;;9.60;4.90;;;;;;;;;;103782;1295;545259;-74
2023/09/30 02:21:26;;;;;;;10.10;5.30;;;;;;;;;;104323;1285;544977;-75
2023/09/30 02:25:07;;;;;;;10.90;4.90;;;;;;;;;;103805;1289;544804;-75
2023/09/30 02:28:43;;;;;;;10.00;4.30;;;;;;;;;;104019;1286;548178;-78
2023/09/30 02:32:18;;;;;;;10.80;5.20;;;;;;;;;;103822;1292;545132;-75
2023/09/30 02:36:03;;;;;;;9.70;4.60;;;;;;;;;;103628;1290;547794;-75
2023/09/30 02:39:33;;;;;;;10.30;4.60;;;;;;;;;;103761;1289;544723;-76
2023/09/30 02:43:16;;;;;;;11.60;4.70;;;;;;;;;;103570;1294;548422;-74
2023/09/30 02:46:48;;;;;;;10.90;4.90;;;;;;;;;;103606;1291;545628;-73
2023/09/30 02:50:26;;;;;;;10.40;4.90;;;;;;;;;;103714;1289;545251;-75
2023/09/30 02:54:03;;;;;;;10.60;4.90;;;;;;;;;;104056;1288;545599;-77
2023/09/30 02:57:40;;;;;;;11.10;4.60;;;;;;;;;;103719;1294;545229;-75
2023/09/30 03:01:19;;;;;;;10.30;4.70;;;;;;;;;;103707;1292;544928;-74
2023/09/30 03:04:58;;;;;;;10.80;5.10;;;;;;;;;;104099;1292;544904;-76
2023/09/30 03:08:35;;;;;;;10.60;4.90;;;;;;;;;;103748;1291;545123;-74
2023/09/30 03:12:12;;;;;;;14.90;5.10;;;;;;;;;;103724;1289;544849;-75
2023/09/30 03:15:56;;;;;;;11.70;5.10;;;;;;;;;;103666;1291;547981;-74
2023/09/30 03:19:25;;;;;;;11.70;4.90;;;;;;;;;;103728;1295;545566;-73
2023/09/30 03:23:05;;;;;;;9.80;4.90;;;;;;;;;;103754;1289;548073;-75
2023/09/30 03:26:36;;;;;;;11.90;4.90;;;;;;;;;;103855;1288;544774;-77
2023/09/30 03:30:20;;;;;;;12.40;4.90;;;;;;;;;;103688;1292;544973;-75
2023/09/30 03:33:56;;;;;;;11.20;4.90;;;;;;;;;;103735;1292;544995;-75
2023/09/30 03:37:34;;;;;;;12.60;4.50;;;;;;;;;;103732;1289;545092;-78
2023/09/30 03:41:13;;;;;;;13.50;5.30;;;;;;;;;;103964;1292;545780;-75
2023/09/30 03:44:54;;;;;;;11.60;5.10;;;;;;;;;;103646;1301;547978;-75
2023/09/30 03:48:32;;;;;;;9.30;4.30;;;;;;;;;;103610;1291;547859;-76
2023/09/30 03:52:04;;;;;;;10.20;4.40;;;;;;;;;;103941;1291;545016;-76
2023/09/30 03:55:42;;;;;;;11.60;4.60;;;;;;;;;;103478;1298;544844;-75
2023/09/30 03:59:26;;;;;;;11.10;4.90;;;;;;;;;;103625;1291;547993;-76
2023/09/30 04:02:58;;;;;;;11.70;4.90;;;;;;;;;;103860;1292;545267;-76
2023/09/30 04:06:38;;;;;;;10.30;5.10;;;;;;;;;;103987;1292;545638;-78
2023/09/30 04:10:17;;;;;;;10.80;4.60;;;;;;;;;;103597;1292;548135;-75
2023/09/30 04:13:49;;;;;;;9.70;4.30;;;;;;;;;;103771;1291;545005;-76
2023/09/30 04:17:27;;;;;;;11.30;5.00;;;;;;;;;;103737;1292;544733;-76
2023/09/30 04:21:03;;;;;;;12.00;4.40;;;;;;;;;;103741;1292;544961;-77
2023/09/30 04:24:41;;;;;;;11.00;4.90;;;;;;;;;;103479;1294;544802;-75
2023/09/30 04:28:20;;;;;;;11.60;4.80;;;;;;;;;;103978;1290;544829;-77
2023/09/30 04:31:56;;;;;;;13.10;4.80;;;;;;;;;;103702;1292;545045;-75
2023/09/30 04:35:35;;;;;;;10.80;4.50;;;;;;;;;;103628;1291;545150;-75
2023/09/30 04:39:16;;;;;;;10.60;4.60;;;;;;;;;;103838;1292;548093;-75
2023/09/30 04:42:49;;;;;;;12.60;4.70;;;;;;;;;;103905;1289;545345;-74
2023/09/30 04:46:26;;;;;;;10.20;5.10;;;;;;;;;;103718;1291;544626;-75
2023/09/30 04:50:09;;;;;;;13.00;5.40;;;;;;;;;;103500;1292;547962;-74
2023/09/30 04:53:41;;;;;;;12.10;5.00;;;;;;;;;;103763;1292;544914;-75
2023/09/30 04:57:19;;;;;;;11.90;4.90;;;;;;;;;;103711;1292;545564;-75
2023/09/30 05:00:55;;;;;;;13.40;5.50;;;;;;;;;;103760;1292;545098;-79
2023/09/30 05:04:33;;;;;;;9.60;4.30;;;;;;;;;;103652;1291;544737;-74
2023/09/30 05:08:13;;;;;;;10.40;4.60;;;;;;;;;;103698;1292;545367;-76
2023/09/30 05:11:48;;;;;;;10.90;4.40;;;;;;;;;;103730;1289;545051;-75
2023/09/30 05:15:32;;;;;;;11.50;4.80;;;;;;;;;;103617;1289;547941;-75
2023/09/30 05:19:09;;;;;;;11.50;4.60;;;;;;;;;;103661;1291;547783;-76
2023/09/30 05:22:46;;;;;;;10.10;3.80;;;;;;;;;;103637;1289;547876;-78
2023/09/30 05:26:18;;;;;;;8.10;3.50;;;;;;;;;;103728;1292;544954;-75
2023/09/30 05:30:01;;;;;;;7.50;2.80;;;;;;;;;;103593;1291;547966;-77
2023/09/30 05:33:38;;;;;;;6.50;1.60;;;;;;;;;;103647;1289;547859;-77
2023/09/30 05:37:12;;;;;;;5.50;1.40;;;;;;;;;;103992;1288;545019;-75
2023/09/30 05:40:48;;;;;;;6.50;1.80;;;;;;;;;;103475;1294;544997;-75
2023/09/30 05:44:27;;;;;;;5.80;1.60;;;;;;;;;;103702;1295;544860;-76
2023/09/30 05:48:08;;;;;;;5.10;1.40;;;;;;;;;;103896;1289;548095;-79
2023/09/30 05:51:50;;;;;;;5.50;1.50;;;;;;;;;;103565;1292;547939;-75
2023/09/30 05:55:21;;;;;;;5.30;1.50;;;;;;;;;;103833;1289;544962;-76
2023/09/30 05:58:55;;;;;;;5.50;1.50;;;;;;;;;;103769;1292;544815;-76
2023/09/30 06:02:34;;;;;;;5.30;1.70;;;;;;;;;;104266;1288;544995;-79
2023/09/30 06:06:13;;;;;;;8.10;1.70;;;;;;;;;;103805;1289;545249;-77
2023/09/30 06:09:49;;;;;;;4.60;1.50;;;;;;;;;;103744;1291;545438;-76
2023/09/30 06:13:27;;;;;;;6.00;1.80;;;;;;;;;;103801;1289;544808;-75
2023/09/30 06:17:02;;;;;;;4.80;1.40;;;;;;;;;;103771;1290;545051;-77
2023/09/30 06:20:41;;;;;;;5.90;2.10;;;;;;;;;;103745;1290;545191;-75
2023/09/30 06:24:19;;;;;;;6.40;1.70;;;;;;;;;;103831;1292;545650;-77
2023/09/30 06:28:00;;;;;;;6.20;1.80;;;;;;;;;;103672;1289;547980;-76
2023/09/30 06:31:38;;;;;;;6.30;1.50;;;;;;;;;;103489;1292;547815;-76
2023/09/30 06:35:11;;;;;;;6.40;1.70;;;;;;;;;;104086;1289;546352;-79
2023/09/30 06:38:50;;;;;;;5.40;1.70;;;;;;;;;;103744;1292;544967;-78
2023/09/30 06:42:31;;;;;;;7.10;1.80;;;;;;;;;;103611;1292;547829;-77
2023/09/30 06:46:12;;;;;;;6.30;1.80;;;;;;;;;;103674;1292;548104;-74
2023/09/30 06:49:39;;;;;;;5.00;1.80;;;;;;;;;;103696;1294;544829;-77
2023/09/30 06:53:23;;;;;;;7.10;1.90;;;;;;;;;;103618;1291;547947;-76
2023/09/30 06:57:00;;;;;;;5.20;1.40;;;;;;;;;;103695;1295;546165;-78
2023/09/30 07:00:32;;;;;;;3.90;1.10;;;;;;;;;;104098;1286;545289;-78
2023/09/30 07:04:11;;;;;;;3.90;1.40;;;;;;;;;;103932;1288;544813;-79
2023/09/30 07:07:47;;;;;;;3.40;1.40;;;;;;;;;;103743;1292;544759;-74
2023/09/30 07:11:32;;;;;;;3.50;1.40;;;;;;;;;;103590;1295;548444;-77
2023/09/30 07:15:02;;;;;;;5.30;1.70;;;;;;;;;;103694;1292;544617;-75
2023/09/30 07:18:39;;;;;;;5.70;1.80;;;;;;;;;;103877;1302;544945;-75
2023/09/30 07:22:22;;;;;;;5.20;1.90;;;;;;;;;;103446;1295;547971;-77
2023/09/30 07:25:54;;;;;;;3.50;1.90;;;;;;;;;;103496;1295;545114;-77
2023/09/30 07:29:37;;;;;;;6.00;1.90;;;;;;;;;;103597;1291;548252;-78
2023/09/30 07:33:14;;;;;;;6.00;2.20;;;;;;;;;;103603;1292;548006;-75
2023/09/30 07:36:52;;;;;;;7.80;4.10;;;;;;;;;;103631;1289;547790;-76
2023/09/30 07:40:29;;;;;;;11.60;5.50;;;;;;;;;;103563;1296;547859;-75
2023/09/30 07:44:02;;;;;;;12.40;6.80;;;;;;;;;;103526;1292;544756;-75
2023/09/30 07:47:39;;;;;;;9.80;3.90;;;;;;;;;;103689;1291;545532;-75
2023/09/30 07:51:16;;;;;;;9.80;3.80;;;;;;;;;;103615;1294;544975;-79
2023/09/30 07:54:54;;;;;;;7.60;3.00;;;;;;;;;;103752;1292;544867;-75
2023/09/30 07:58:37;;;;;;;9.80;3.10;;;;;;;;;;103573;1290;548172;-79
2023/09/30 08:02:09;;;;;;;8.30;3.20;;;;;;;;;;103736;1289;544772;-78
2023/09/30 08:05:52;;;;;;;10.00;2.80;;;;;;;;;;103582;1292;547794;-80
2023/09/30 08:09:24;;;;;;;7.70;2.40;;;;;;;;;;103711;1292;544965;-79
2023/09/30 08:13:02;;;;;;;7.80;2.40;;;;;;;;;;103737;1292;544911;-78
2023/09/30 08:16:44;;;;;;;9.10;2.90;;;;;;;;;;103635;1291;548041;-78
2023/09/30 08:20:22;;;;;;;8.80;2.60;;;;;;;;;;103490;1291;546222;-80
2023/09/30 08:23:56;;;;;;;9.50;2.70;;;;;;;;;;103727;1295;547954;-79
2023/09/30 08:27:38;;;;;;;9.80;2.90;;;;;;;;;;103634;1292;547886;-78
2023/09/30 08:31:10;;;;;;;8.60;2.50;;;;;;;;;;103698;1295;548032;-79
2023/09/30 08:34:46;;;;;;;9.80;2.60;;;;;;;;;;103617;1291;545469;-82
2023/09/30 08:38:24;;;;;;;9.60;2.90;;;;;;;;;;103803;1290;545131;-79
2023/09/30 08:42:01;;;;;;;9.20;2.70;;;;;;;;;;103717;1296;544861;-75
2023/09/30 08:45:39;;;;;;;10.80;2.50;;;;;;;;;;103669;1291;545447;-74
2023/09/30 08:49:22;;;;;;;10.40;2.70;;;;;;;;;;103554;1291;547925;-77
2023/09/30 08:52:49;;;;;;;10.20;2.50;;;;;;;;;;103758;1292;545892;-84
2023/09/30 08:56:33;;;;;;;9.00;2.40;;;;;;;;;;103523;1292;545415;-74
2023/09/30 09:00:12;;;;;;;11.70;3.20;;;;;;;;;;103800;1290;544982;-80
2023/09/30 09:03:53;;;;;;;9.60;2.90;;;;;;;;;;103466;1291;547790;-75
2023/09/30 09:07:24;;;;;;;8.60;2.60;;;;;;;;;;103710;1290;544848;-77
2023/09/30 09:11:09;;;;;;;12.40;3.30;;;;;;;;;;103486;1295;548363;-80
2023/09/30 09:14:47;;;;;;;10.30;2.70;;;;;;;;;;103458;1292;547926;-76
2023/09/30 09:18:33;;;;;;;11.20;3.10;;;;;;;;;;103228;1294;547807;-80
2023/09/30 09:21:56;;;;;;;9.80;3.00;;;;;;;;;;103722;1294;544984;-75
2023/09/30 09:25:39;;;;;;;10.90;3.00;;;;;;;;;;104139;1288;547828;-77
2023/09/30 09:29:09;;;;;;;11.00;2.80;;;;;;;;;;104130;1286;545030;-78
2023/09/30 09:33:06;;;;;;;11.10;2.80;;;;;;;;;;103725;1303;545301;-77
2023/09/30 09:36:45;;;;;;;11.60;3.00;;;;;;;;;;103712;1292;544840;-78
2023/09/30 09:40:03;;;;;;;11.80;3.10;;;;;;;;;;103530;1295;545891;-77
2023/09/30 09:43:48;;;;;;;11.20;3.00;;;;;;;;;;103261;1297;547960;-77
2023/09/30 09:47:23;;;;;;;11.30;3.10;;;;;;;;;;103455;1291;548016;-77
2023/09/30 09:51:01;;;;;;;9.50;2.80;;;;;;;;;;103569;1291;548168;-83
2023/09/30 09:54:40;;;;;;;10.70;2.70;;;;;;;;;;103585;1292;547782;-80
2023/09/30 09:58:10;;;;;;;12.00;3.30;;;;;;;;;;103639;1292;544935;-79
2023/09/30 10:01:48;;;;;;;12.40;3.00;;;;;;;;;;103621;1292;544987;-80
2023/09/30 10:05:30;;;;;;;12.90;3.50;;;;;;;;;;103231;1304;548201;-79
2023/09/30 10:09:10;;;;;;;11.60;2.80;;;;;;;;;;103535;1292;547887;-78
2023/09/30 10:12:45;;;;;;;9.90;2.60;;;;;;;;;;103554;1292;547756;-81
2023/09/30 10:16:49;;;;;;;11.60;2.80;;;;;;;;;;103572;1292;547807;-81
2023/09/30 10:20:06;;;;;;;10.40;2.80;;;;;;;;;;103262;1295;548025;-77
2023/09/30 10:23:37;;;;;;;11.30;2.90;;;;;;;;;;103809;1287;548001;-75
2023/09/30 10:27:21;;;;;;;10.10;3.10;;;;;;;;;;103794;1289;545974;-78
2023/09/30 10:31:13;;;;;;;11.30;3.20;;;;;;;;;;103683;1289;547969;-76
2023/09/30 10:34:26;;;;;;;8.30;2.80;;;;;;;;;;103673;1289;547950;-78
2023/09/30 10:38:23;;;;;;;10.10;3.10;;;;;;;;;;103736;1292;545540;-82
2023/09/30 10:41:38;;;;;;;10.80;3.10;;;;;;;;;;103802;1288;544776;-79
2023/09/30 10:45:38;;;;;;;11.70;3.10;;;;;;;;;;103725;1302;544936;-79
2023/09/30 10:49:14;;;;;;;11.80;2.90;;;;;;;;;;103496;1294;548526;-78
2023/09/30 10:52:40;;;;;;;10.80;2.90;;;;;;;;;;103511;1291;547946;-83
2023/09/30 10:56:22;;;;;;;11.40;3.10;;;;;;;;;;103691;1293;545564;-78
2023/09/30 11:00:06;;;;;;;10.60;3.50;;;;;;;;;;103588;1291;548038;-81
2023/09/30 11:03:23;;;;;;;11.20;3.00;;;;;;;;;;103592;1290;545530;-79
2023/09/30 11:07:07;;;;;;;11.20;2.90;;;;;;;;;;103677;1292;548150;-79
2023/09/30 11:10:48;;;;;;;12.00;2.90;;;;;;;;;;103598;1295;548392;-81
2023/09/30 11:14:23;;;;;;;9.50;2.50;;;;;;;;;;103580;1290;548170;-80
2023/09/30 11:18:12;;;;;;;12.30;3.10;;;;;;;;;;103215;1308;548042;-81
2023/09/30 11:21:38;;;;;;;10.80;3.00;;;;;;;;;;103560;1291;548005;-82
2023/09/30 11:25:18;;;;;;;11.80;3.40;;;;;;;;;;103364;1299;547978;-79
2023/09/30 11:28:53;;;;;;;10.30;3.10;;;;;;;;;;103321;1298;547977;-81
2023/09/30 11:32:26;;;;;;;10.20;3.10;;;;;;;;;;103762;1289;545446;-82
2023/09/30 11:36:05;;;;;;;10.30;2.90;;;;;;;;;;103728;1289;547845;-79
2023/09/30 11:39:44;;;;;;;12.20;3.10;;;;;;;;;;103465;1291;548165;-78
2023/09/30 11:43:23;;;;;;;11.30;3.40;;;;;;;;;;103540;1295;548009;-80
2023/09/30 11:47:04;;;;;;;10.50;2.80;;;;;;;;;;103585;1292;547964;-79
2023/09/30 11:51:03;;;;;;;12.10;3.00;;;;;;;;;;103601;1291;547987;-83
2023/09/30 11:54:14;;;;;;;12.10;3.00;;;;;;;;;;103604;1292;548689;-78
2023/09/30 11:57:54;;;;;;;8.90;2.60;;;;;;;;;;103544;1288;547821;-77
2023/09/30 12:01:30;;;;;;;9.70;3.00;;;;;;;;;;103432;1292;547931;-80
2023/09/30 12:05:02;;;;;;;9.70;2.90;;;;;;;;;;103824;1288;546403;-78
2023/09/30 12:08:45;;;;;;;10.10;2.80;;;;;;;;;;103858;1289;548085;-82
2023/09/30 12:12:21;;;;;;;8.60;2.70;;;;;;;;;;103672;1292;548080;-81
2023/09/30 12:15:59;;;;;;;10.60;2.70;;;;;;;;;;103562;1291;547917;-81
2023/09/30 12:19:32;;;;;;;9.60;2.50;;;;;;;;;;104036;1297;544769;-81
2023/09/30 12:23:05;;;;;;;9.50;2.80;;;;;;;;;;103742;1290;545026;-77
2023/09/30 12:26:58;;;;;;;9.60;3.30;;;;;;;;;;103710;1294;547917;-80
2023/09/30 12:30:31;;;;;;;11.00;3.10;;;;;;;;;;103605;1292;548050;-78
2023/09/30 12:34:03;;;;;;;10.30;2.90;;;;;;;;;;103796;1289;545096;-79
2023/09/30 12:37:46;;;;;;;12.10;3.80;;;;;;;;;;103648;1294;547946;-81
2023/09/30 12:41:24;;;;;;;13.00;4.50;;;;;;;;;;103519;1291;548072;-79
2023/09/30 12:45:01;;;;;;;14.30;4.60;;;;;;;;;;103442;1293;548109;-78
2023/09/30 12:48:40;;;;;;;9.30;2.90;;;;;;;;;;104082;1284;547967;-81
2023/09/30 12:52:16;;;;;;;11.70;3.20;;;;;;;;;;103364;1299;547830;-83
2023/09/30 12:55:54;;;;;;;11.60;2.90;;;;;;;;;;103544;1295;548038;-77
2023/09/30 12:59:25;;;;;;;10.80;2.50;;;;;;;;;;103740;1289;544987;-78
2023/09/30 13:03:09;;;;;;;8.70;2.60;;;;;;;;;;103320;1294;547854;-76
2023/09/30 13:06:46;;;;;;;10.20;3.00;;;;;;;;;;103517;1292;547988;-80
2023/09/30 13:10:25;;;;;;;9.80;2.80;;;;;;;;;;103771;1289;548062;-79
2023/09/30 13:14:01;;;;;;;10.70;3.10;;;;;;;;;;103719;1294;547934;-78
2023/09/30 13:17:39;;;;;;;9.40;2.70;;;;;;;;;;103657;1293;549783;-77
2023/09/30 13:21:12;;;;;;;7.90;2.20;;;;;;;;;;103748;1292;544964;-79
2023/09/30 13:35:12;;;;;;;10.00;2.60;;;;;;;;;;104508;1284;549555;-80
2023/09/30 13:38:04;;;;;;;10.80;2.80;;;;;;;;;;103709;1292;544987;-78
2023/09/30 13:41:47;;;;;;;8.50;2.60;;;;;;;;;;103603;1292;548112;-78
2023/09/30 13:45:25;;;;;;;8.80;2.50;;;;;;;;;;103524;1295;548208;-79
2023/09/30 13:49:02;;;;;;;9.30;2.70;;;;;;;;;;103253;1294;549121;-77
2023/09/30 13:52:39;;;;;;;9.80;2.80;;;;;;;;;;103547;1292;547788;-80
2023/09/30 13:56:17;;;;;;;11.20;2.90;;;;;;;;;;103609;1289;548084;-79
2023/09/30 13:59:54;;;;;;;10.50;3.00;;;;;;;;;;103570;1292;548032;-78
2023/09/30 14:03:32;;;;;;;11.40;3.10;;;;;;;;;;103350;1300;547816;-79
2023/09/30 14:07:09;;;;;;;12.00;4.50;;;;;;;;;;103443;1292;547777;-80
2023/09/30 14:10:47;;;;;;;10.90;4.00;;;;;;;;;;103999;1289;547984;-78
2023/09/30 14:14:18;;;;;;;9.80;3.10;;;;;;;;;;103814;1292;544777;-77
2023/09/30 14:17:58;;;;;;;9.80;2.40;;;;;;;;;;103887;1289;544956;-77
2023/09/30 14:21:33;;;;;;;9.10;2.50;;;;;;;;;;103962;1290;544920;-78
2023/09/30 14:35:34;;;;;;;9.70;2.50;;;;;;;;;;104888;1283;549722;-78
2023/09/30 14:38:23;;;;;;;9.80;2.50;;;;;;;;;;103924;1292;545057;-77
2023/09/30 14:42:12;;;;;;;9.90;2.40;;;;;;;;;;103495;1291;548106;-80
2023/09/30 14:45:43;;;;;;;11.00;2.30;;;;;;;;;;103873;1293;545470;-82
2023/09/30 14:49:27;;;;;;;10.40;2.10;;;;;;;;;;103698;1292;547992;-78
2023/09/30 14:53:04;;;;;;;8.90;2.00;;;;;;;;;;103652;1290;547917;-78
2023/09/30 14:56:41;;;;;;;9.20;2.50;;;;;;;;;;103463;1294;549265;-81
2023/09/30 15:00:22;;;;;;;8.80;2.00;;;;;;;;;;103638;1290;548067;-80
2023/09/30 15:03:56;;;;;;;10.40;2.40;;;;;;;;;;103475;1295;548036;-78
2023/09/30 15:07:25;;;;;;;7.70;2.10;;;;;;;;;;103980;1292;546201;-77
2023/09/30 15:11:16;;;;;;;9.90;2.40;;;;;;;;;;103605;1289;547877;-79
2023/09/30 15:14:47;;;;;;;8.10;2.10;;;;;;;;;;103652;1295;547956;-77
2023/09/30 15:18:28;;;;;;;9.70;2.40;;;;;;;;;;103523;1291;548011;-80
2023/09/30 15:22:06;;;;;;;10.20;3.40;;;;;;;;;;103490;1292;547838;-78
2023/09/30 15:25:44;;;;;;;8.70;2.10;;;;;;;;;;103889;1292;547909;-80
2023/09/30 15:29:21;;;;;;;10.10;2.30;;;;;;;;;;103793;1290;547824;-78
2023/09/30 15:32:58;;;;;;;8.10;1.80;;;;;;;;;;103573;1291;547932;-79
2023/09/30 15:36:31;;;;;;;9.80;2.20;;;;;;;;;;103767;1292;544967;-80
2023/09/30 15:40:07;;;;;;;8.90;2.30;;;;;;;;;;103958;1292;545339;-77
2023/09/30 15:43:45;;;;;;;8.00;2.00;;;;;;;;;;104034;1291;546304;-77
2023/09/30 15:47:28;;;;;;;10.00;2.30;;;;;;;;;;103626;1290;547905;-79
2023/09/30 15:51:05;;;;;;;8.70;2.20;;;;;;;;;;103475;1291;547889;-80
2023/09/30 15:54:43;;;;;;;9.30;2.40;;;;;;;;;;103772;1289;547837;-78
2023/09/30 15:58:20;;;;;;;7.30;2.10;;;;;;;;;;103640;1289;545323;-80
2023/09/30 16:01:58;;;;;;;8.90;2.20;;;;;;;;;;103616;1292;548039;-79
2023/09/30 16:05:33;;;;;;;7.50;2.30;;;;;;;;;;104274;1286;547802;-78
2023/09/30 16:09:18;;;;;;;11.00;2.20;;;;;;;;;;103742;1291;547818;-81
2023/09/30 16:12:41;;;;;;;8.80;2.00;;;;;;;;;;103751;1293;544949;-80
2023/09/30 16:16:30;;;;;;;11.10;3.00;;;;;;;;;;103870;1288;548021;-78
2023/09/30 16:20:08;;;;;;;12.80;3.20;;;;;;;;;;103423;1291;548109;-81
2023/09/30 16:23:45;;;;;;;9.30;2.90;;;;;;;;;;103617;1291;547984;-78
2023/09/30 16:27:22;;;;;;;9.80;3.00;;;;;;;;;;103453;1296;547987;-78
2023/09/30 16:31:00;;;;;;;11.30;3.30;;;;;;;;;;103446;1294;548108;-76
2023/09/30 16:34:37;;;;;;;9.10;3.00;;;;;;;;;;103581;1292;547833;-80
2023/09/30 16:38:09;;;;;;;10.30;2.90;;;;;;;;;;103859;1292;545545;-78
2023/09/30 16:41:52;;;;;;;8.90;2.60;;;;;;;;;;104138;1288;547806;-77
2023/09/30 16:45:30;;;;;;;7.80;2.40;;;;;;;;;;103783;1289;547944;-79
2023/09/30 16:49:08;;;;;;;10.20;2.60;;;;;;;;;;103778;1302;547981;-78
2023/09/30 16:52:44;;;;;;;8.70;2.50;;;;;;;;;;103518;1293;547989;-78
2023/09/30 16:56:22;;;;;;;11.00;2.70;;;;;;;;;;103478;1292;547928;-77
2023/09/30 16:59:59;;;;;;;10.20;2.80;;;;;;;;;;103596;1295;548329;-78
2023/09/30 17:03:37;;;;;;;11.90;3.20;;;;;;;;;;103569;1295;547788;-77
2023/09/30 17:17:37;;;;;;;12.00;4.30;;;;;;;;;;104485;1284;553646;-80
2023/09/30 17:20:30;;;;;;;11.00;3.70;;;;;;;;;;103838;1290;544836;-78
2023/09/30 17:24:13;;;;;;;12.60;4.00;;;;;;;;;;103527;1295;548329;-78
2023/09/30 17:27:50;;;;;;;9.40;3.80;;;;;;;;;;103503;1291;547822;-82
2023/09/30 17:41:51;;;;;;;12.10;3.50;;;;;;;;;;104500;1285;553761;-79
2023/09/30 17:44:44;;;;;;;12.20;3.60;;;;;;;;;;103483;1294;545004;-81
2023/09/30 17:48:27;;;;;;;12.80;4.20;;;;;;;;;;103502;1293;548015;-78
2023/09/30 17:52:04;;;;;;;12.50;3.70;;;;;;;;;;103564;1293;548192;-81
2023/09/30 17:55:41;;;;;;;10.40;3.60;;;;;;;;;;103779;1292;548135;-77
2023/09/30 17:59:19;;;;;;;11.70;3.60;;;;;;;;;;103566;1292;546252;-78
2023/09/30 18:02:56;;;;;;;15.10;4.30;;;;;;;;;;103898;1287;547956;-78
2023/09/30 18:06:34;;;;;;;13.80;4.60;;;;;;;;;;103550;1291;547820;-78
2023/09/30 18:10:06;;;;;;;13.70;5.00;;;;;;;;;;103912;1289;545739;-78
2023/09/30 18:13:48;;;;;;;13.20;5.20;;;;;;;;;;103236;1300;547948;-77
2023/09/30 18:17:26;;;;;;;12.60;4.60;;;;;;;;;;103478;1292;548105;-78
2023/09/30 18:21:04;;;;;;;14.80;5.20;;;;;;;;;;103652;1289;547811;-77
2023/09/30 18:24:41;;;;;;;14.10;5.60;;;;;;;;;;103773;1288;547843;-79
2023/09/30 18:28:18;;;;;;;13.30;4.60;;;;;;;;;;103641;1292;548160;-78
2023/09/30 18:31:56;;;;;;;13.80;4.30;;;;;;;;;;103658;1292;548456;-77
2023/09/30 18:35:28;;;;;;;11.40;3.80;;;;;;;;;;103742;1311;546106;-78
2023/09/30 18:39:12;;;;;;;14.90;5.40;;;;;;;;;;103433;1297;548171;-80
2023/09/30 18:42:48;;;;;;;12.10;3.80;;;;;;;;;;103632;1293;547826;-77
2023/09/30 18:46:26;;;;;;;11.00;3.90;;;;;;;;;;103625;1290;547968;-79
2023/09/30 18:50:04;;;;;;;10.70;3.30;;;;;;;;;;103580;1291;547994;-77
2023/09/30 18:54:00;;;;;;;12.40;3.60;;;;;;;;;;103653;1292;548459;-77
2023/09/30 18:57:18;;;;;;;11.00;3.80;;;;;;;;;;103236;1296;547898;-77
2023/09/30 19:00:56;;;;;;;29.20;17.70;;;;;;;;;;103517;1295;548437;-80
2023/09/30 19:04:33;;;;;;;22.10;12.50;;;;;;;;;;103906;1286;548111;-77
2023/09/30 19:08:06;;;;;;;26.00;14.30;;;;;;;;;;103731;1290;544893;-77
2023/09/30 19:11:50;;;;;;;16.10;8.20;;;;;;;;;;103902;1291;548219;-77
2023/09/30 19:15:27;;;;;;;19.10;8.10;;;;;;;;;;103573;1292;547983;-78
2023/09/30 19:19:03;;;;;;;12.40;5.20;;;;;;;;;;103708;1289;548012;-77
2023/09/30 19:33:03;;;;;;;10.40;3.10;;;;;;;;;;104533;1284;553682;-77
2023/09/30 19:36:07;;;;;;;11.00;3.50;;;;;;;;;;103458;1291;548405;-79
2023/09/30 19:49:56;;;;;;;10.70;2.90;;;;;;;;;;104516;1289;549842;-79
2023/09/30 19:52:56;;;;;;;9.60;3.10;;;;;;;;;;103639;1304;548408;-78
2023/09/30 19:56:36;;;;;;;10.80;3.10;;;;;;;;;;103642;1291;547975;-77
2023/09/30 20:00:16;;;;;;;10.60;3.10;;;;;;;;;;103852;1289;548105;-77
2023/09/30 20:03:49;;;;;;;12.00;3.10;;;;;;;;;;103866;1292;548243;-77
2023/09/30 20:07:43;;;;;;;10.20;3.00;;;;;;;;;;103740;1291;548107;-78
2023/09/30 20:11:04;;;;;;;11.10;2.90;;;;;;;;;;103556;1292;547937;-76
2023/09/30 20:14:41;;;;;;;10.10;3.10;;;;;;;;;;103541;1295;547917;-77
2023/09/30 20:18:21;;;;;;;10.00;2.90;;;;;;;;;;103674;1296;548458;-77
2023/09/30 20:21:56;;;;;;;12.00;3.30;;;;;;;;;;103274;1294;548010;-77
2023/09/30 20:25:34;;;;;;;11.10;3.30;;;;;;;;;;103636;1293;547955;-77
2023/09/30 20:29:08;;;;;;;10.50;3.30;;;;;;;;;;103764;1292;548390;-78
2023/09/30 20:32:49;;;;;;;8.50;3.00;;;;;;;;;;103584;1292;547948;-78
2023/09/30 20:36:27;;;;;;;8.10;2.80;;;;;;;;;;103592;1294;547858;-77
2023/09/30 20:40:10;;;;;;;13.60;3.10;;;;;;;;;;103602;1291;547928;-77
2023/09/30 20:43:42;;;;;;;9.50;3.10;;;;;;;;;;103499;1292;547974;-77
2023/09/30 20:47:18;;;;;;;8.60;3.00;;;;;;;;;;103593;1297;548186;-77
2023/09/30 20:50:51;;;;;;;9.70;3.00;;;;;;;;;;103945;1289;545033;-77
2023/09/30 20:54:33;;;;;;;12.30;3.80;;;;;;;;;;103589;1289;549554;-77
2023/09/30 20:58:11;;;;;;;12.00;3.50;;;;;;;;;;103510;1293;548108;-77
2023/09/30 21:01:45;;;;;;;10.40;3.50;;;;;;;;;;103401;1295;545014;-78
2023/09/30 21:05:20;;;;;;;9.90;3.30;;;;;;;;;;104101;1288;545154;-77
2023/09/30 21:09:03;;;;;;;12.00;3.00;;;;;;;;;;103927;1288;547761;-77
2023/09/30 21:12:41;;;;;;;9.90;3.00;;;;;;;;;;103631;1289;548229;-78
2023/09/30 21:16:21;;;;;;;9.90;3.00;;;;;;;;;;103475;1292;548129;-77
2023/09/30 21:19:56;;;;;;;12.10;2.90;;;;;;;;;;104500;1283;548208;-77
2023/09/30 21:23:28;;;;;;;10.60;3.00;;;;;;;;;;103750;1291;545004;-80
2023/09/30 21:27:07;;;;;;;10.60;3.30;;;;;;;;;;103711;1293;547904;-77
2023/09/30 21:30:49;;;;;;;11.70;3.20;;;;;;;;;;103579;1292;547891;-78
2023/09/30 21:34:22;;;;;;;8.00;2.80;;;;;;;;;;103583;1291;548432;-78
2023/09/30 21:38:04;;;;;;;10.40;3.00;;;;;;;;;;103592;1305;547962;-77
2023/09/30 21:41:41;;;;;;;10.60;2.70;;;;;;;;;;103526;1292;548046;-77
2023/09/30 21:45:19;;;;;;;8.80;3.00;;;;;;;;;;103911;1291;548268;-77
2023/09/30 21:59:20;;;;;;;10.20;2.90;;;;;;;;;;104297;1285;556675;-76